Time;durP1;ratioP1;P1;durP2;ratioP2;P2;SDS_P1;SDS_P2;PMS_P1;PMS_P2;Temp;Humidity;BMP_temperature;BMP_pressure;BME280_temperature;BME280_humidity;BME280_pressure;Samples;Min_cycle;Max_cycle;Signal;HPM_P1;HPM_P2
2021/03/25 00:00:12;;;;;;;14.00;6.40;;;;;;;3.00;64.95;100111.47;5044409;28;20032;-67
2021/03/25 00:02:38;;;;;;;15.43;6.77;;;;;;;2.93;64.93;100123.31;5043475;28;20236;-66
2021/03/25 00:05:06;;;;;;;20.07;6.27;;;;;;;3.07;64.61;100123.19;5042666;28;20458;-72
2021/03/25 00:07:32;;;;;;;13.00;6.77;;;;;;;2.98;64.28;100123.81;5042126;28;20224;-66
2021/03/25 00:09:59;;;;;;;13.60;6.03;;;;;;;2.88;63.46;100123.59;5045137;28;20037;-66
2021/03/25 00:12:24;;;;;;;14.97;6.83;;;;;;;2.91;65.66;100120.78;5047781;28;20067;-72
2021/03/25 00:14:49;;;;;;;16.17;7.53;;;;;;;3.10;65.28;100118.59;5054586;28;20041;-66
2021/03/25 00:17:15;;;;;;;14.20;6.63;;;;;;;3.36;64.43;100119.44;5061246;28;20246;-73
2021/03/25 00:19:40;;;;;;;11.43;5.87;;;;;;;3.57;63.20;100124.09;5045189;28;20064;-74
2021/03/25 00:22:06;;;;;;;16.60;7.83;;;;;;;3.56;63.48;100128.50;5057423;28;20037;-74
2021/03/25 00:24:32;;;;;;;15.33;6.97;;;;;;;3.66;62.36;100118.22;5043583;28;20261;-73
2021/03/25 00:26:57;;;;;;;16.73;7.53;;;;;;;3.70;63.22;100112.66;5043163;28;20530;-73
2021/03/25 00:29:22;;;;;;;15.97;6.90;;;;;;;3.80;62.34;100115.44;5040717;28;20033;-73
2021/03/25 00:31:48;;;;;;;18.87;9.40;;;;;;;4.01;60.37;100120.91;5043074;28;20209;-74
2021/03/25 00:34:14;;;;;;;18.37;9.37;;;;;;;3.76;61.62;100111.38;5042413;28;20078;-66
2021/03/25 00:36:40;;;;;;;15.27;7.27;;;;;;;3.85;60.73;100123.81;5042662;28;20026;-73
2021/03/25 00:39:08;;;;;;;19.20;8.50;;;;;;;3.85;60.39;100121.19;5042672;28;20137;-73
2021/03/25 00:41:35;;;;;;;16.40;8.43;;;;;;;3.71;61.77;100130.03;5042552;28;20091;-73
2021/03/25 00:44:02;;;;;;;17.47;8.23;;;;;;;3.72;60.90;100113.38;5042860;28;20042;-66
2021/03/25 00:46:28;;;;;;;16.50;7.73;;;;;;;3.69;61.32;100108.34;5043625;28;20033;-73
2021/03/25 00:48:53;;;;;;;16.87;7.93;;;;;;;3.61;60.49;100113.31;5040730;28;20410;-73
2021/03/25 00:51:19;;;;;;;12.87;6.10;;;;;;;3.39;62.38;100113.97;5043048;28;20031;-73
2021/03/25 00:53:44;;;;;;;11.83;5.60;;;;;;;3.46;62.33;100112.59;5041407;28;20036;-74
2021/03/25 00:56:09;;;;;;;13.37;5.97;;;;;;;3.53;60.59;100107.78;5040892;28;20082;-74
2021/03/25 00:58:35;;;;;;;17.30;6.50;;;;;;;3.43;60.95;100107.59;5042554;28;20041;-72
2021/03/25 01:01:04;;;;;;;16.03;5.77;;;;;;;3.32;61.35;100120.59;5040756;28;20042;-73
2021/03/25 01:03:29;;;;;;;9.83;5.57;;;;;;;3.28;62.89;100119.13;5040980;28;20029;-73
2021/03/25 01:05:55;;;;;;;17.57;6.13;;;;;;;3.39;60.93;100111.38;5041788;28;20083;-67
2021/03/25 01:08:21;;;;;;;12.60;6.03;;;;;;;3.32;61.92;100119.75;5040962;28;20104;-73
2021/03/25 01:10:53;;;;;;;11.70;5.10;;;;;;;3.30;61.69;100119.84;5042210;28;20037;-72
2021/03/25 01:13:39;;;;;;;9.73;4.70;;;;;;;3.24;62.79;100120.28;5041827;28;20045;-73
2021/03/25 01:16:06;;;;;;;8.30;4.60;;;;;;;3.16;62.26;100117.38;5045298;28;20104;-66
2021/03/25 01:18:32;;;;;;;9.70;4.53;;;;;;;3.20;62.15;100108.34;5041005;28;20033;-73
2021/03/25 01:20:57;;;;;;;9.03;4.03;;;;;;;3.25;61.88;100106.25;5040060;28;20033;-74
2021/03/25 01:23:23;;;;;;;17.47;6.63;;;;;;;2.95;62.80;100113.56;5041318;28;20092;-73
2021/03/25 01:25:49;;;;;;;10.30;5.27;;;;;;;3.03;63.33;100116.50;5040260;28;20026;-73
2021/03/25 01:28:16;;;;;;;6.80;4.60;;;;;;;3.06;62.57;100106.66;5040498;28;20342;-73
2021/03/25 01:30:43;;;;;;;14.27;4.57;;;;;;;2.96;62.68;100112.63;5040846;28;20041;-73
2021/03/25 01:33:12;;;;;;;7.67;4.33;;;;;;;2.89;62.88;100120.91;5039043;28;20084;-73
2021/03/25 01:35:39;;;;;;;8.53;4.30;;;;;;;3.09;62.78;100108.22;5044675;28;20029;-73
2021/03/25 01:38:10;;;;;;;12.10;4.80;;;;;;;3.28;61.82;100118.28;5041500;28;20066;-66
2021/03/25 01:40:47;;;;;;;11.10;4.80;;;;;;;3.09;62.84;100119.53;5040143;28;20211;-73
2021/03/25 01:43:22;;;;;;;12.60;4.70;;;;;;;3.02;63.52;100114.81;5039843;28;20031;-73
2021/03/25 01:45:58;;;;;;;9.90;4.90;;;;;;;3.01;63.51;100111.38;5054424;28;20066;-67
2021/03/25 01:48:29;;;;;;;9.13;4.47;;;;;;;3.21;62.09;100104.78;5042036;28;20350;-72
2021/03/25 01:51:03;;;;;;;8.43;4.63;;;;;;;3.03;63.02;100095.56;5040681;28;20033;-73
2021/03/25 01:53:51;;;;;;;13.48;6.10;;;;;;;3.28;62.73;100102.59;5040132;28;20432;-72
2021/03/25 01:56:35;;;;;;;21.77;9.33;;;;;;;3.02;63.02;100102.59;5041691;28;20029;-72
2021/03/25 01:59:22;;;;;;;25.25;10.55;;;;;;;3.07;63.54;100100.47;5041459;28;20095;-74
2021/03/25 02:01:55;;;;;;;25.77;10.57;;;;;;;2.96;63.33;100097.78;5040575;28;20065;-74
2021/03/25 02:04:42;;;;;;;22.23;8.47;;;;;;;3.08;63.03;100110.00;5041631;28;20056;-66
2021/03/25 02:07:19;;;;;;;11.77;5.67;;;;;;;2.95;62.59;100117.03;5044109;28;20065;-66
2021/03/25 02:09:58;;;;;;;9.80;5.47;;;;;;;2.91;63.37;100112.94;5041404;28;20049;-74
2021/03/25 02:12:59;;;;;;;10.83;4.63;;;;;;;3.18;61.39;100124.16;5041595;28;20033;-73
2021/03/25 02:16:02;;;;;;;11.00;3.93;;;;;;;3.06;62.66;100126.75;5038022;28;20108;-72
2021/03/25 02:18:53;;;;;;;7.33;4.10;;;;;;;3.24;62.84;100130.75;5028104;28;20351;-72
2021/03/25 02:22:09;;;;;;;9.33;4.40;;;;;;;3.05;61.67;100135.53;5040877;28;20053;-73
2021/03/25 02:25:02;;;;;;;15.03;5.57;;;;;;;2.96;62.69;100146.63;5033653;28;20037;-73
2021/03/25 02:27:37;;;;;;;16.43;7.13;;;;;;;2.83;62.35;100152.69;5009952;28;20033;-74
2021/03/25 02:30:09;;;;;;;16.23;6.57;;;;;;;2.67;63.38;100153.81;5042991;28;20076;-72
2021/03/25 02:32:45;;;;;;;11.90;5.00;;;;;;;2.70;63.80;100148.38;5045115;28;20054;-73
2021/03/25 02:35:32;;;;;;;12.67;3.90;;;;;;;2.79;63.97;100151.22;5049081;28;20335;-66
2021/03/25 02:38:06;;;;;;;8.27;4.30;;;;;;;2.91;64.26;100151.34;5042785;28;20037;-73
2021/03/25 02:40:39;;;;;;;16.20;5.18;;;;;;;3.03;63.42;100148.72;5038685;28;20215;-66
2021/03/25 02:43:16;;;;;;;11.63;4.88;;;;;;;3.12;62.53;100149.88;5039437;28;20037;-66
2021/03/25 02:45:52;;;;;;;14.53;4.77;;;;;;;3.22;61.32;100152.72;5042762;28;20336;-66
2021/03/25 02:48:21;;;;;;;10.83;4.37;;;;;;;2.83;62.43;100155.31;5041705;28;20247;-66
2021/03/25 02:50:52;;;;;;;9.27;4.47;;;;;;;2.85;63.51;100152.59;5040828;28;20029;-66
2021/03/25 02:53:31;;;;;;;10.77;4.87;;;;;;;3.04;63.33;100153.03;5039855;28;20099;-66
2021/03/25 02:56:04;;;;;;;11.50;5.30;;;;;;;3.29;61.32;100159.22;5039758;28;20022;-66
2021/03/25 02:58:30;;;;;;;14.57;6.30;;;;;;;3.27;61.74;100159.31;5039013;28;20033;-66
2021/03/25 03:01:10;;;;;;;15.97;8.80;;;;;;;3.32;61.37;100162.47;5041561;28;20150;-66
2021/03/25 03:03:46;;;;;;;18.07;9.53;;;;;;;3.30;61.06;100153.03;5038775;28;20493;-66
2021/03/25 03:06:27;;;;;;;18.50;10.03;;;;;;;3.31;61.26;100157.34;5044084;28;20045;-74
2021/03/25 03:08:55;;;;;;;19.07;9.80;;;;;;;3.39;61.17;100148.00;5042659;28;20103;-73
2021/03/25 03:11:35;;;;;;;19.50;10.57;;;;;;;3.28;60.84;100139.22;5055374;28;20041;-66
2021/03/25 03:14:09;;;;;;;18.80;9.63;;;;;;;3.24;60.18;100146.44;5039062;28;20041;-65
2021/03/25 03:16:49;;;;;;;15.52;8.75;;;;;;;3.06;61.47;100145.06;5039960;28;20201;-73
2021/03/25 03:19:28;;;;;;;23.23;11.03;;;;;;;3.13;61.07;100143.75;5038170;28;20096;-66
2021/03/25 03:21:58;;;;;;;32.03;14.30;;;;;;;3.12;61.21;100152.50;5039201;28;20048;-66
2021/03/25 03:24:23;;;;;;;36.97;15.30;;;;;;;3.15;61.34;100149.69;5038140;28;20033;-66
2021/03/25 03:27:14;;;;;;;28.43;12.77;;;;;;;3.01;60.74;100155.84;5039019;28;20029;-66
2021/03/25 03:29:42;;;;;;;23.93;11.07;;;;;;;2.94;61.03;100162.44;5042639;28;20036;-67
2021/03/25 03:32:29;;;;;;;20.90;10.73;;;;;;;2.79;61.48;100163.47;5040020;28;20048;-66
2021/03/25 03:35:10;;;;;;;25.57;11.23;;;;;;;2.67;61.40;100159.88;5039903;28;20044;-73
2021/03/25 03:37:48;;;;;;;19.60;9.47;;;;;;;2.63;62.26;100158.41;5038960;28;20064;-73
2021/03/25 03:40:25;;;;;;;18.70;9.77;;;;;;;2.77;62.47;100171.41;5038860;28;20338;-72
2021/03/25 03:43:03;;;;;;;22.17;10.03;;;;;;;2.91;61.50;100175.72;5040297;28;20030;-73
2021/03/25 03:45:30;;;;;;;24.63;10.83;;;;;;;2.71;61.87;100181.44;5040201;28;20033;-73
2021/03/25 03:48:03;;;;;;;25.63;12.13;;;;;;;2.82;61.76;100185.00;5038992;28;20431;-66
2021/03/25 03:50:32;;;;;;;26.33;12.35;;;;;;;2.83;61.72;100188.47;5042475;28;20091;-74
2021/03/25 03:52:58;;;;;;;26.40;11.87;;;;;;;2.83;61.19;100191.91;5060614;28;20040;-73
2021/03/25 03:55:24;;;;;;;22.40;12.07;;;;;;;2.80;61.44;100188.66;5054594;28;20281;-73
2021/03/25 03:58:05;;;;;;;29.00;11.33;;;;;;;2.69;61.17;100186.78;5043161;28;20025;-72
2021/03/25 04:00:37;;;;;;;23.97;11.40;;;;;;;2.50;61.48;100189.75;5043383;28;20079;-72
2021/03/25 04:03:07;;;;;;;27.63;11.90;;;;;;;2.76;61.56;100181.97;5044115;28;20072;-72
2021/03/25 04:05:37;;;;;;;22.37;10.77;;;;;;;2.83;61.12;100181.47;5042062;28;20040;-74
2021/03/25 04:08:31;;;;;;;17.20;9.13;;;;;;;2.75;61.32;100181.13;5048121;28;20063;-74
2021/03/25 04:11:17;;;;;;;22.48;11.40;;;;;;;2.79;60.63;100179.16;5040463;28;20319;-73
2021/03/25 04:13:50;;;;;;;29.73;13.00;;;;;;;2.71;60.73;100178.81;5042082;28;20061;-73
2021/03/25 04:16:22;;;;;;;24.50;11.40;;;;;;;2.78;60.35;100180.94;5042005;28;20071;-66
2021/03/25 04:19:01;;;;;;;25.43;12.00;;;;;;;2.89;59.62;100180.22;5042877;28;20037;-74
2021/03/25 04:21:31;;;;;;;22.60;11.73;;;;;;;2.95;59.74;100184.19;5048106;28;20044;-73
2021/03/25 04:23:59;;;;;;;22.93;11.73;;;;;;;3.06;58.85;100185.16;5043778;28;20029;-73
2021/03/25 04:27:03;;;;;;;38.47;16.33;;;;;;;3.12;57.88;100197.84;5041610;28;20087;-73
2021/03/25 04:29:34;;;;;;;36.63;17.35;;;;;;;3.16;59.05;100194.09;5057159;28;20240;-74
2021/03/25 04:32:01;;;;;;;39.87;17.90;;;;;;;3.12;58.20;100195.22;5040960;28;20213;-73
2021/03/25 04:34:26;;;;;;;57.57;21.73;;;;;;;3.00;58.76;100209.09;5042311;28;20075;-72
2021/03/25 04:36:53;;;;;;;49.27;19.80;;;;;;;3.05;58.60;100204.41;5041969;28;20239;-66
2021/03/25 04:39:21;;;;;;;41.83;18.43;;;;;;;3.05;58.95;100216.66;5044048;28;20308;-66
2021/03/25 04:41:47;;;;;;;41.93;18.43;;;;;;;3.08;58.71;100221.69;5042729;28;20045;-66
2021/03/25 04:44:29;;;;;;;48.53;19.13;;;;;;;3.14;58.45;100226.53;5043733;28;20024;-74
2021/03/25 04:47:13;;;;;;;35.80;17.27;;;;;;;3.06;58.42;100227.00;5041163;28;20043;-66
2021/03/25 04:49:42;;;;;;;31.93;14.03;;;;;;;3.04;58.54;100230.66;5040982;28;20075;-67
2021/03/25 04:52:16;;;;;;;32.10;14.53;;;;;;;3.19;58.04;100224.44;5045661;28;20033;-66
2021/03/25 04:54:41;;;;;;;27.80;11.60;;;;;;;3.29;57.31;100232.50;5042655;28;20044;-66
2021/03/25 04:57:07;;;;;;;32.07;13.87;;;;;;;3.32;57.78;100237.53;5042238;28;20033;-66
2021/03/25 04:59:36;;;;;;;28.37;13.37;;;;;;;3.05;57.48;100230.56;5041550;28;20245;-66
2021/03/25 05:02:03;;;;;;;29.07;11.67;;;;;;;3.17;58.32;100239.41;5041359;28;20056;-66
2021/03/25 05:04:30;;;;;;;25.37;11.40;;;;;;;3.36;57.82;100234.59;5041893;28;20335;-67
2021/03/25 05:07:01;;;;;;;21.90;10.80;;;;;;;3.31;57.78;100241.09;5042081;28;20124;-73
2021/03/25 05:09:28;;;;;;;26.13;10.73;;;;;;;3.40;57.92;100243.09;5039511;28;20029;-66
2021/03/25 05:11:54;;;;;;;32.63;11.97;;;;;;;3.30;58.50;100248.09;5041330;28;20056;-73
2021/03/25 05:14:23;;;;;;;31.90;12.83;;;;;;;3.20;58.68;100245.28;5040420;28;21171;-73
2021/03/25 05:17:00;;;;;;;29.73;13.17;;;;;;;3.43;58.26;100238.47;5040479;28;20065;-67
2021/03/25 05:19:32;;;;;;;34.07;13.43;;;;;;;3.40;58.27;100245.69;5040175;28;20208;-73
2021/03/25 05:22:06;;;;;;;28.03;11.20;;;;;;;3.44;58.49;100255.03;5041339;28;20083;-73
2021/03/25 05:24:50;;;;;;;27.90;13.20;;;;;;;3.64;57.56;100258.91;5040998;28;20035;-73
2021/03/25 05:27:37;;;;;;;21.13;9.40;;;;;;;3.46;57.25;100253.13;5073232;28;20031;-73
2021/03/25 05:30:11;;;;;;;18.30;8.80;;;;;;;3.60;58.05;100257.44;5040197;28;20044;-74
2021/03/25 05:32:41;;;;;;;25.55;10.15;;;;;;;3.76;56.95;100251.03;5041229;28;20100;-73
2021/03/25 05:35:10;;;;;;;21.83;9.07;;;;;;;3.76;56.38;100247.56;5040200;28;20041;-72
2021/03/25 05:37:36;;;;;;;17.07;9.20;;;;;;;3.64;57.16;100241.41;5042923;28;20026;-73
2021/03/25 05:40:09;;;;;;;22.20;9.40;;;;;;;3.45;57.32;100252.31;5042083;28;20029;-67
2021/03/25 05:42:53;;;;;;;40.22;17.42;;;;;;;3.58;57.24;100254.91;5041958;28;20293;-67
2021/03/25 05:45:30;;;;;;;33.45;15.55;;;;;;;3.56;57.77;100246.34;5041986;28;20055;-66
2021/03/25 05:48:20;;;;;;;38.93;17.63;;;;;;;3.58;58.05;100249.69;5041634;28;20422;-73
2021/03/25 05:50:52;;;;;;;32.40;13.77;;;;;;;3.79;57.58;100265.69;5041655;28;20041;-66
2021/03/25 05:53:46;;;;;;;25.67;11.27;;;;;;;3.72;56.96;100264.44;5041275;28;20411;-66
2021/03/25 05:56:42;;;;;;;27.83;11.00;;;;;;;3.77;57.17;100276.28;5044971;28;20034;-67
2021/03/25 05:59:14;;;;;;;27.93;11.93;;;;;;;3.97;57.08;100281.91;5039338;28;20063;-66
2021/03/25 06:02:02;;;;;;;23.03;12.33;;;;;;;3.97;57.06;100282.75;5040255;28;20061;-66
2021/03/25 06:04:31;;;;;;;26.93;13.80;;;;;;;3.90;56.65;100284.13;5039375;28;20354;-72
2021/03/25 06:07:14;;;;;;;26.43;13.93;;;;;;;3.96;58.13;100288.94;5044317;28;20071;-74
2021/03/25 06:10:01;;;;;;;29.02;13.60;;;;;;;4.17;56.62;100281.38;5041550;28;20044;-73
2021/03/25 06:12:58;;;;;;;25.13;11.13;;;;;;;4.15;56.86;100273.59;5044404;28;20040;-66
2021/03/25 06:15:54;;;;;;;21.77;10.73;;;;;;;4.29;55.46;100282.31;5044942;28;20080;-66
2021/03/25 06:18:44;;;;;;;27.23;11.77;;;;;;;4.52;55.60;100297.22;5051890;28;20029;-66
2021/03/25 06:21:38;;;;;;;24.73;11.60;;;;;;;4.35;55.59;100289.72;5046047;28;20204;-74
2021/03/25 06:24:41;;;;;;;24.17;10.80;;;;;;;4.44;55.78;100300.41;5040927;28;20033;-74
2021/03/25 06:27:34;;;;;;;27.47;12.23;;;;;;;4.43;56.12;100305.75;5039640;28;20042;-73
2021/03/25 06:30:14;;;;;;;29.50;11.70;;;;;;;4.86;54.58;100307.91;5039506;28;20041;-73
2021/03/25 06:32:59;;;;;;;26.70;12.00;;;;;;;5.20;53.96;100301.88;5039514;28;20033;-71
2021/03/25 06:35:36;;;;;;;24.27;11.13;;;;;;;5.36;54.24;100314.69;5039746;28;20037;-63
2021/03/25 06:38:25;;;;;;;19.43;9.47;;;;;;;5.67;53.20;100300.06;5039521;28;20068;-70
2021/03/25 06:41:11;;;;;;;19.07;8.70;;;;;;;5.77;51.92;100307.16;5039356;28;20067;-64
2021/03/25 06:43:55;;;;;;;20.63;9.70;;;;;;;6.12;51.41;100305.41;5039894;28;20096;-64
2021/03/25 06:46:34;;;;;;;29.07;10.23;;;;;;;6.40;51.26;100310.19;5041058;28;20037;-64
2021/03/25 06:49:05;;;;;;;22.85;10.15;;;;;;;6.76;50.00;100308.19;5040398;28;20166;-65
2021/03/25 06:51:33;;;;;;;17.45;8.68;;;;;;;7.17;48.80;100296.91;5041259;28;20026;-63
2021/03/25 06:54:12;;;;;;;16.50;8.80;;;;;;;7.52;48.24;100309.81;5038549;28;20033;-64
2021/03/25 06:56:42;;;;;;;17.50;8.48;;;;;;;7.86;46.33;100313.06;5038857;28;20033;-64
2021/03/25 06:59:19;;;;;;;20.13;8.40;;;;;;;8.16;45.03;100312.25;5039593;28;20024;-67
2021/03/25 07:01:50;;;;;;;17.40;7.78;;;;;;;8.26;44.00;100311.31;5040720;28;20045;-64
2021/03/25 07:04:15;;;;;;;14.05;7.05;;;;;;;8.66;43.25;100307.88;5040131;28;20408;-65
2021/03/25 07:06:41;;;;;;;14.68;6.80;;;;;;;8.75;43.12;100306.22;5038862;28;20029;-70
2021/03/25 07:09:08;;;;;;;11.88;5.97;;;;;;;9.21;42.55;100301.09;5040177;28;20041;-67
2021/03/25 07:11:35;;;;;;;13.38;6.22;;;;;;;9.48;40.06;100308.34;5038885;28;20091;-73
2021/03/25 07:14:10;;;;;;;14.90;6.13;;;;;;;9.48;40.99;100307.50;5060661;28;20036;-67
2021/03/25 07:16:42;;;;;;;12.65;6.35;;;;;;;9.55;40.35;100312.09;5058674;28;20037;-74
2021/03/25 07:19:12;;;;;;;13.43;6.30;;;;;;;9.82;41.46;100310.50;5040516;28;20129;-67
2021/03/25 07:21:46;;;;;;;18.80;7.82;;;;;;;9.99;40.26;100285.09;5039343;28;20041;-67
2021/03/25 07:24:36;;;;;;;13.80;7.60;;;;;;;10.05;38.90;100309.16;5039142;28;20032;-67
2021/03/25 07:27:08;;;;;;;14.10;6.63;;;;;;;9.84;39.13;100313.84;5039627;28;20037;-67
2021/03/25 07:29:37;;;;;;;10.98;6.70;;;;;;;10.02;38.92;100311.28;5039394;28;20033;-67
2021/03/25 07:32:05;;;;;;;11.85;6.97;;;;;;;9.98;38.51;100313.38;5042235;28;20029;-67
2021/03/25 07:34:30;;;;;;;14.90;5.90;;;;;;;10.21;38.08;100321.81;5043873;28;20028;-73
2021/03/25 07:36:58;;;;;;;11.35;5.85;;;;;;;10.33;37.90;100310.06;5043394;28;20033;-74
2021/03/25 07:39:27;;;;;;;12.40;7.20;;;;;;;10.17;38.79;100315.94;5044255;28;20216;-74
2021/03/25 07:41:56;;;;;;;10.18;6.28;;;;;;;10.30;38.99;100318.28;5058994;28;20360;-73
2021/03/25 07:44:24;;;;;;;11.35;5.90;;;;;;;10.66;38.00;100323.72;5053452;28;20048;-73
2021/03/25 07:46:58;;;;;;;9.20;4.88;;;;;;;10.44;38.75;100319.66;5053665;28;20079;-67
2021/03/25 07:49:27;;;;;;;15.50;6.60;;;;;;;10.95;37.16;100326.19;5051760;28;20029;-74
2021/03/25 07:52:03;;;;;;;13.27;6.97;;;;;;;11.33;37.63;100315.25;5055089;28;20031;-74
2021/03/25 07:54:37;;;;;;;14.82;6.60;;;;;;;11.40;36.31;100323.44;5055410;28;20036;-74
2021/03/25 07:57:19;;;;;;;12.27;6.50;;;;;;;11.66;36.64;100319.03;5054417;28;20020;-71
2021/03/25 07:59:50;;;;;;;8.10;4.50;;;;;;;11.46;36.68;100320.22;5053940;28;20307;-71
2021/03/25 08:02:29;;;;;;;6.88;3.78;;;;;;;11.93;35.66;100318.09;5053302;28;20128;-71
2021/03/25 08:04:57;;;;;;;5.97;3.67;;;;;;;11.87;33.72;100310.75;5056362;28;20052;-64
2021/03/25 08:07:24;;;;;;;8.68;4.35;;;;;;;11.93;33.56;100312.78;5052829;28;20033;-74
2021/03/25 08:09:53;;;;;;;20.77;8.80;;;;;;;11.92;32.47;100311.09;5052808;28;20103;-71
2021/03/25 08:12:34;;;;;;;7.82;4.18;;;;;;;12.17;33.36;100308.59;5052179;28;20029;-64
2021/03/25 08:15:26;;;;;;;7.43;4.38;;;;;;;12.56;32.74;100316.91;5052773;28;20032;-65
2021/03/25 08:18:06;;;;;;;6.68;4.18;;;;;;;12.62;32.35;100314.44;5052783;28;20071;-71
2021/03/25 08:20:53;;;;;;;6.32;3.58;;;;;;;12.61;34.50;100309.28;5053722;28;20049;-71
2021/03/25 08:23:53;;;;;;;168.00;36.90;;;;;;;11.76;30.39;100305.66;5054601;28;20033;-71
2021/03/25 08:26:29;;;;;;;52.30;14.40;;;;;;;12.19;33.54;100304.78;5051903;28;20339;-71
2021/03/25 08:28:54;;;;;;;10.45;4.65;;;;;;;12.26;31.65;100302.31;5066965;28;20257;-72
2021/03/25 08:31:28;;;;;;;11.20;4.40;;;;;;;11.70;29.86;100298.34;5054182;28;20064;-73
2021/03/25 08:34:26;;;;;;;18.15;7.28;;;;;;;11.82;31.58;100297.94;5057481;28;20029;-74
2021/03/25 08:37:06;;;;;;;21.67;8.32;;;;;;;11.94;32.59;100295.03;5052222;28;20032;-73
2021/03/25 08:40:04;;;;;;;44.65;13.43;;;;;;;11.65;31.29;100304.09;5051472;28;20049;-64
2021/03/25 08:42:38;;;;;;;18.83;6.80;;;;;;;11.76;31.96;100308.31;5053919;28;20036;-73
2021/03/25 08:45:19;;;;;;;4.35;2.85;;;;;;;12.02;32.67;100297.72;5054891;28;20033;-74
2021/03/25 08:47:54;;;;;;;6.10;3.58;;;;;;;12.55;31.75;100291.34;5052918;28;20037;-64
2021/03/25 08:50:28;;;;;;;38.85;12.13;;;;;;;12.19;32.40;100298.63;5053158;28;20086;-71
2021/03/25 08:52:58;;;;;;;12.20;4.78;;;;;;;11.86;33.83;100300.28;5054595;28;20028;-74
2021/03/25 08:55:33;;;;;;;5.00;3.35;;;;;;;12.20;32.00;100301.13;5054382;28;20373;-71
2021/03/25 08:58:11;;;;;;;3.92;2.97;;;;;;;10.92;31.54;100307.94;5053848;28;20037;-71
2021/03/25 09:00:40;;;;;;;5.60;3.05;;;;;;;10.73;32.18;100308.91;5054732;28;20052;-64
2021/03/25 09:03:17;;;;;;;4.95;3.22;;;;;;;10.63;32.42;100301.00;5051811;28;20041;-67
2021/03/25 09:06:05;;;;;;;5.90;3.35;;;;;;;10.35;36.59;100308.09;5050674;28;20046;-67
2021/03/25 09:08:34;;;;;;;8.38;2.95;;;;;;;10.28;34.58;100300.88;5050932;28;20044;-74
2021/03/25 09:11:03;;;;;;;20.38;6.50;;;;;;;10.15;32.41;100306.50;5052470;28;20106;-73
2021/03/25 09:13:37;;;;;;;5.20;2.60;;;;;;;10.35;32.24;100308.09;5052627;28;20029;-74
2021/03/25 09:16:25;;;;;;;111.22;21.52;;;;;;;10.99;32.43;100301.88;5052084;28;20095;-71
2021/03/25 09:18:51;;;;;;;9.77;4.20;;;;;;;11.44;32.94;100299.16;5058954;28;20194;-65
2021/03/25 09:21:26;;;;;;;5.93;3.60;;;;;;;11.82;32.98;100302.41;5060110;28;20323;-71
2021/03/25 09:24:04;;;;;;;5.00;3.17;;;;;;;12.25;30.10;100290.88;5061985;28;20075;-71
2021/03/25 09:26:29;;;;;;;5.55;3.75;;;;;;;11.93;30.81;100293.38;5053088;28;20326;-65
2021/03/25 09:29:02;;;;;;;5.72;3.13;;;;;;;11.90;31.18;100302.47;5051160;28;20033;-64
2021/03/25 09:31:34;;;;;;;10.32;4.03;;;;;;;11.96;29.85;100301.00;5054860;28;20340;-72
2021/03/25 09:34:11;;;;;;;6.35;3.13;;;;;;;11.15;31.66;100303.84;5061867;28;20094;-71
2021/03/25 09:36:45;;;;;;;11.32;3.97;;;;;;;10.96;32.79;100304.81;5062256;28;20230;-71
2021/03/25 09:39:22;;;;;;;5.63;3.30;;;;;;;10.87;34.63;100308.38;5060576;28;20056;-64
2021/03/25 09:41:48;;;;;;;5.60;3.55;;;;;;;10.99;31.51;100293.94;5061868;28;20052;-71
2021/03/25 09:44:20;;;;;;;9.80;3.03;;;;;;;11.23;32.57;100301.25;5061366;28;20033;-64
2021/03/25 09:46:54;;;;;;;4.65;3.10;;;;;;;11.35;33.27;100294.72;5061440;28;20056;-64
2021/03/25 09:49:26;;;;;;;6.40;3.13;;;;;;;11.49;31.68;100288.06;5059518;28;20139;-64
2021/03/25 09:52:13;;;;;;;8.57;4.05;;;;;;;10.85;32.03;100279.38;5062130;28;20029;-71
2021/03/25 09:54:47;;;;;;;5.40;2.92;;;;;;;10.83;34.92;100288.47;5059464;28;20331;-71
2021/03/25 09:57:17;;;;;;;8.23;3.53;;;;;;;10.76;35.23;100293.53;5061401;28;20040;-67
2021/03/25 09:59:52;;;;;;;4.10;2.85;;;;;;;10.85;33.00;100291.81;5060672;28;20036;-67
2021/03/25 10:02:47;;;;;;;3.83;2.63;;;;;;;10.67;31.32;100286.47;5061579;28;20032;-73
2021/03/25 10:05:25;;;;;;;3.63;2.58;;;;;;;10.28;33.50;100280.56;5060686;28;20040;-67
2021/03/25 10:07:58;;;;;;;6.40;3.50;;;;;;;10.40;36.51;100286.47;5062000;28;20045;-73
2021/03/25 10:10:23;;;;;;;5.55;3.80;;;;;;;10.69;35.66;100289.81;5060411;28;20041;-66
2021/03/25 10:13:00;;;;;;;7.75;3.92;;;;;;;10.60;36.09;100287.22;5061610;28;20079;-67
2021/03/25 10:15:29;;;;;;;5.18;3.28;;;;;;;10.80;36.82;100286.94;5059762;28;20745;-74
2021/03/25 10:17:55;;;;;;;6.97;2.97;;;;;;;10.71;35.44;100290.50;5061352;28;20068;-73
2021/03/25 10:20:59;;;;;;;10.85;3.58;;;;;;;10.61;35.15;100289.72;5060093;28;20051;-74
2021/03/25 10:23:28;;;;;;;3.58;2.80;;;;;;;10.76;33.54;100288.22;5061211;28;20028;-74
2021/03/25 10:26:07;;;;;;;5.15;3.05;;;;;;;10.65;33.15;100283.16;5060238;28;20102;-67
2021/03/25 10:28:37;;;;;;;5.30;3.42;;;;;;;10.63;35.14;100292.22;5061297;28;20040;-67
2021/03/25 10:31:14;;;;;;;4.90;2.95;;;;;;;10.78;33.12;100282.78;5060187;28;20037;-73
2021/03/25 10:33:40;;;;;;;4.80;2.90;;;;;;;10.96;34.40;100280.16;5059702;28;20254;-74
2021/03/25 10:36:08;;;;;;;7.97;4.22;;;;;;;11.00;33.11;100279.69;5060081;28;20041;-64
2021/03/25 10:38:52;;;;;;;7.43;3.53;;;;;;;11.32;34.77;100281.78;5060820;28;20075;-64
2021/03/25 10:41:22;;;;;;;6.22;3.20;;;;;;;11.48;32.40;100268.69;5059730;28;20036;-71
2021/03/25 10:43:50;;;;;;;4.40;3.15;;;;;;;11.42;32.95;100265.78;5060998;28;20041;-65
2021/03/25 10:46:37;;;;;;;6.88;3.05;;;;;;;11.27;34.27;100270.81;5059746;28;20029;-64
2021/03/25 10:49:16;;;;;;;4.07;2.97;;;;;;;11.29;34.97;100275.97;5060356;28;20070;-71
2021/03/25 10:51:45;;;;;;;4.43;2.67;;;;;;;11.26;32.37;100265.66;5061301;28;20041;-71
2021/03/25 10:54:37;;;;;;;4.10;3.05;;;;;;;11.18;33.62;100267.25;5059541;28;20112;-72
2021/03/25 10:57:25;;;;;;;3.83;2.88;;;;;;;11.15;34.17;100259.63;5061651;28;20049;-72
2021/03/25 11:00:01;;;;;;;5.00;3.03;;;;;;;10.99;33.13;100267.44;5059507;28;20059;-71
2021/03/25 11:02:31;;;;;;;18.50;6.45;;;;;;;11.12;31.48;100257.28;5060450;28;20033;-65
2021/03/25 11:05:02;;;;;;;7.88;3.83;;;;;;;10.28;32.68;100271.78;5059452;28;20248;-74
2021/03/25 11:07:28;;;;;;;4.68;3.03;;;;;;;10.53;32.25;100266.66;5060785;28;20020;-73
2021/03/25 11:09:55;;;;;;;4.80;2.67;;;;;;;10.45;34.87;100266.56;5059234;28;20082;-72
2021/03/25 11:12:25;;;;;;;5.95;3.60;;;;;;;10.30;34.26;100251.28;5056069;28;20047;-73
2021/03/25 11:14:57;;;;;;;5.22;3.22;;;;;;;10.31;34.69;100264.38;5058894;28;20076;-66
2021/03/25 11:17:35;;;;;;;4.70;3.15;;;;;;;10.89;33.04;100256.06;5060544;28;20036;-66
2021/03/25 11:20:06;;;;;;;4.35;2.92;;;;;;;10.64;31.81;100251.53;5058244;28;20199;-66
2021/03/25 11:22:33;;;;;;;6.82;4.30;;;;;;;10.65;33.81;100248.72;5059381;28;20106;-66
2021/03/25 11:25:06;;;;;;;4.75;2.80;;;;;;;10.72;36.04;100259.56;5059487;28;20302;-66
2021/03/25 11:27:32;;;;;;;7.53;4.40;;;;;;;10.92;36.72;100253.13;5060164;28;20104;-67
2021/03/25 11:30:07;;;;;;;4.10;3.13;;;;;;;11.03;32.95;100250.25;5059372;28;20338;-75
2021/03/25 11:32:41;;;;;;;10.25;5.47;;;;;;;11.23;34.12;100253.53;5059184;28;20118;-63
2021/03/25 11:35:28;;;;;;;4.38;3.10;;;;;;;11.59;30.93;100254.34;5059325;28;20024;-70
2021/03/25 11:37:55;;;;;;;6.32;3.63;;;;;;;11.44;33.50;100248.75;5060576;28;20216;-70
2021/03/25 11:40:42;;;;;;;4.40;3.53;;;;;;;11.37;32.57;100249.50;5059181;28;20032;-64
2021/03/25 11:43:12;;;;;;;8.38;4.88;;;;;;;11.42;34.16;100250.72;5060812;28;20327;-70
2021/03/25 11:45:40;;;;;;;7.43;4.43;;;;;;;11.32;33.20;100255.28;5058981;28;20100;-70
2021/03/25 11:48:33;;;;;;;5.10;3.00;;;;;;;10.99;34.68;100254.19;5060042;28;20322;-70
2021/03/25 11:51:17;;;;;;;17.00;6.38;;;;;;;10.68;33.47;100252.88;5058127;28;20068;-70
2021/03/25 11:53:48;;;;;;;19.15;7.03;;;;;;;10.65;33.13;100251.38;5058122;28;20029;-72
2021/03/25 11:56:38;;;;;;;11.50;5.88;;;;;;;10.93;33.20;100248.66;5058899;28;20048;-73